sensor_id;sensor_type;location;lat;lon;timestamp;temperature;humidity
70166;SHT30;57541;47.408;18.822;2024-02-04T00:00:01;9.33;91.74
70166;SHT30;57541;47.408;18.822;2024-02-04T00:00:32;9.33;91.73
70166;SHT30;57541;47.408;18.822;2024-02-04T00:01:05;9.34;91.68
70166;SHT30;57541;47.408;18.822;2024-02-04T00:01:36;9.37;91.67
70166;SHT30;57541;47.408;18.822;2024-02-04T00:02:08;9.33;91.73
70166;SHT30;57541;47.408;18.822;2024-02-04T00:02:45;9.41;91.65
70166;SHT30;57541;47.408;18.822;2024-02-04T00:03:17;9.31;91.71
70166;SHT30;57541;47.408;18.822;2024-02-04T00:03:51;9.33;91.69
70166;SHT30;57541;47.408;18.822;2024-02-04T00:04:23;9.35;91.65
70166;SHT30;57541;47.408;18.822;2024-02-04T00:04:56;9.33;91.80
70166;SHT30;57541;47.408;18.822;2024-02-04T00:05:27;9.33;91.67
70166;SHT30;57541;47.408;18.822;2024-02-04T00:06:00;9.37;91.75
70166;SHT30;57541;47.408;18.822;2024-02-04T00:06:32;9.37;91.74
70166;SHT30;57541;47.408;18.822;2024-02-04T00:07:04;9.35;91.82
70166;SHT30;57541;47.408;18.822;2024-02-04T00:07:36;9.37;91.84
70166;SHT30;57541;47.408;18.822;2024-02-04T00:08:08;9.40;91.78
70166;SHT30;57541;47.408;18.822;2024-02-04T00:08:40;9.38;91.75
70166;SHT30;57541;47.408;18.822;2024-02-04T00:09:12;9.38;91.87
70166;SHT30;57541;47.408;18.822;2024-02-04T00:09:44;9.33;91.97
70166;SHT30;57541;47.408;18.822;2024-02-04T00:10:16;9.34;91.90
70166;SHT30;57541;47.408;18.822;2024-02-04T00:10:50;9.40;91.82
70166;SHT30;57541;47.408;18.822;2024-02-04T00:11:21;9.38;91.86
70166;SHT30;57541;47.408;18.822;2024-02-04T00:11:53;9.43;91.87
70166;SHT30;57541;47.408;18.822;2024-02-04T00:12:25;9.43;91.90
70166;SHT30;57541;47.408;18.822;2024-02-04T00:12:56;9.47;91.88
70166;SHT30;57541;47.408;18.822;2024-02-04T00:13:28;9.48;91.82
70166;SHT30;57541;47.408;18.822;2024-02-04T00:14:00;9.45;91.71
70166;SHT30;57541;47.408;18.822;2024-02-04T00:14:32;9.45;91.64
70166;SHT30;57541;47.408;18.822;2024-02-04T00:15:05;9.45;91.58
70166;SHT30;57541;47.408;18.822;2024-02-04T00:15:37;9.44;91.57
70166;SHT30;57541;47.408;18.822;2024-02-04T00:16:08;9.44;91.62
70166;SHT30;57541;47.408;18.822;2024-02-04T00:16:40;9.44;91.71
70166;SHT30;57541;47.408;18.822;2024-02-04T00:17:12;9.45;91.57
70166;SHT30;57541;47.408;18.822;2024-02-04T00:17:46;9.47;91.51
70166;SHT30;57541;47.408;18.822;2024-02-04T00:18:17;9.48;91.47
70166;SHT30;57541;47.408;18.822;2024-02-04T00:18:49;9.47;91.40
70166;SHT30;57541;47.408;18.822;2024-02-04T00:19:21;9.50;91.31
70166;SHT30;57541;47.408;18.822;2024-02-04T00:19:54;9.50;91.23
70166;SHT30;57541;47.408;18.822;2024-02-04T00:20:26;9.51;91.25
70166;SHT30;57541;47.408;18.822;2024-02-04T00:20:59;9.48;91.29
70166;SHT30;57541;47.408;18.822;2024-02-04T00:21:31;9.44;91.38
70166;SHT30;57541;47.408;18.822;2024-02-04T00:22:02;9.50;91.39
70166;SHT30;57541;47.408;18.822;2024-02-04T00:22:35;9.47;91.40
70166;SHT30;57541;47.408;18.822;2024-02-04T00:23:06;9.47;91.42
70166;SHT30;57541;47.408;18.822;2024-02-04T00:23:38;9.45;91.39
70166;SHT30;57541;47.408;18.822;2024-02-04T00:24:10;9.43;91.40
70166;SHT30;57541;47.408;18.822;2024-02-04T00:24:42;9.43;91.50
70166;SHT30;57541;47.408;18.822;2024-02-04T00:25:14;9.41;91.53
70166;SHT30;57541;47.408;18.822;2024-02-04T00:25:46;9.35;91.63
70166;SHT30;57541;47.408;18.822;2024-02-04T00:26:18;9.40;91.67
70166;SHT30;57541;47.408;18.822;2024-02-04T00:26:50;9.37;91.64
70166;SHT30;57541;47.408;18.822;2024-02-04T00:27:22;9.35;91.67
70166;SHT30;57541;47.408;18.822;2024-02-04T00:27:54;9.38;91.72
70166;SHT30;57541;47.408;18.822;2024-02-04T00:28:25;9.38;91.86
70166;SHT30;57541;47.408;18.822;2024-02-04T00:28:59;9.38;91.69
70166;SHT30;57541;47.408;18.822;2024-02-04T00:29:31;9.38;91.74
70166;SHT30;57541;47.408;18.822;2024-02-04T00:30:03;9.37;91.73
70166;SHT30;57541;47.408;18.822;2024-02-04T00:30:35;9.33;91.80
70166;SHT30;57541;47.408;18.822;2024-02-04T00:31:07;9.35;91.76
70166;SHT30;57541;47.408;18.822;2024-02-04T00:31:39;9.33;91.82
70166;SHT30;57541;47.408;18.822;2024-02-04T00:32:11;9.30;91.87
70166;SHT30;57541;47.408;18.822;2024-02-04T00:32:42;9.27;91.89
70166;SHT30;57541;47.408;18.822;2024-02-04T00:33:15;9.27;92.00
70166;SHT30;57541;47.408;18.822;2024-02-04T00:33:47;9.28;92.08
70166;SHT30;57541;47.408;18.822;2024-02-04T00:34:19;9.28;92.08
70166;SHT30;57541;47.408;18.822;2024-02-04T00:34:52;9.26;92.00
70166;SHT30;57541;47.408;18.822;2024-02-04T00:35:24;9.26;92.01
70166;SHT30;57541;47.408;18.822;2024-02-04T00:35:57;9.28;91.98
70166;SHT30;57541;47.408;18.822;2024-02-04T00:36:29;9.31;91.99
70166;SHT30;57541;47.408;18.822;2024-02-04T00:37:01;9.26;91.97
70166;SHT30;57541;47.408;18.822;2024-02-04T00:37:33;9.26;91.99
70166;SHT30;57541;47.408;18.822;2024-02-04T00:38:04;9.23;92.06
70166;SHT30;57541;47.408;18.822;2024-02-04T00:38:36;9.22;92.05
70166;SHT30;57541;47.408;18.822;2024-02-04T00:39:08;9.17;92.22
70166;SHT30;57541;47.408;18.822;2024-02-04T00:39:40;9.17;92.27
70166;SHT30;57541;47.408;18.822;2024-02-04T00:40:12;9.17;92.30
70166;SHT30;57541;47.408;18.822;2024-02-04T00:40:43;9.14;92.40
70166;SHT30;57541;47.408;18.822;2024-02-04T00:41:15;9.19;92.40
70166;SHT30;57541;47.408;18.822;2024-02-04T00:41:47;9.13;92.48
70166;SHT30;57541;47.408;18.822;2024-02-04T00:42:19;9.13;92.43
70166;SHT30;57541;47.408;18.822;2024-02-04T00:42:51;9.12;92.52
70166;SHT30;57541;47.408;18.822;2024-02-04T00:43:22;9.13;92.54
70166;SHT30;57541;47.408;18.822;2024-02-04T00:43:54;9.12;92.54
70166;SHT30;57541;47.408;18.822;2024-02-04T00:44:26;9.10;92.61
70166;SHT30;57541;47.408;18.822;2024-02-04T00:44:58;9.19;92.45
70166;SHT30;57541;47.408;18.822;2024-02-04T00:45:29;9.19;92.23
70166;SHT30;57541;47.408;18.822;2024-02-04T00:46:01;9.16;92.34
70166;SHT30;57541;47.408;18.822;2024-02-04T00:46:33;9.17;92.43
70166;SHT30;57541;47.408;18.822;2024-02-04T00:47:05;9.14;92.50
70166;SHT30;57541;47.408;18.822;2024-02-04T00:47:37;9.14;92.54
70166;SHT30;57541;47.408;18.822;2024-02-04T00:48:08;9.13;92.53
70166;SHT30;57541;47.408;18.822;2024-02-04T00:48:40;9.14;92.58
70166;SHT30;57541;47.408;18.822;2024-02-04T00:49:12;9.16;92.61
70166;SHT30;57541;47.408;18.822;2024-02-04T00:49:44;9.17;92.52
70166;SHT30;57541;47.408;18.822;2024-02-04T00:50:17;9.16;92.50
70166;SHT30;57541;47.408;18.822;2024-02-04T00:50:48;9.14;92.60
70166;SHT30;57541;47.408;18.822;2024-02-04T00:51:20;9.13;92.56
70166;SHT30;57541;47.408;18.822;2024-02-04T00:51:53;9.13;92.55
70166;SHT30;57541;47.408;18.822;2024-02-04T00:52:25;9.12;92.65
70166;SHT30;57541;47.408;18.822;2024-02-04T00:52:56;9.04;92.74
70166;SHT30;57541;47.408;18.822;2024-02-04T00:53:28;9.03;92.94
70166;SHT30;57541;47.408;18.822;2024-02-04T00:54:05;9.06;92.87
70166;SHT30;57541;47.408;18.822;2024-02-04T00:54:37;9.07;92.85
70166;SHT30;57541;47.408;18.822;2024-02-04T00:55:09;9.04;92.89
70166;SHT30;57541;47.408;18.822;2024-02-04T00:55:41;9.07;92.94
70166;SHT30;57541;47.408;18.822;2024-02-04T00:56:13;9.06;92.96
70166;SHT30;57541;47.408;18.822;2024-02-04T00:56:44;9.07;92.97
70166;SHT30;57541;47.408;18.822;2024-02-04T00:57:16;9.07;92.90
70166;SHT30;57541;47.408;18.822;2024-02-04T00:57:48;9.03;92.98
70166;SHT30;57541;47.408;18.822;2024-02-04T00:58:20;8.96;93.09
70166;SHT30;57541;47.408;18.822;2024-02-04T00:58:52;8.96;93.11
70166;SHT30;57541;47.408;18.822;2024-02-04T00:59:24;8.95;93.27
70166;SHT30;57541;47.408;18.822;2024-02-04T00:59:56;8.93;93.31
70166;SHT30;57541;47.408;18.822;2024-02-04T01:00:27;8.96;93.27
70166;SHT30;57541;47.408;18.822;2024-02-04T01:00:59;8.95;93.26
70166;SHT30;57541;47.408;18.822;2024-02-04T01:01:31;8.96;93.27
70166;SHT30;57541;47.408;18.822;2024-02-04T01:02:03;8.92;93.34
70166;SHT30;57541;47.408;18.822;2024-02-04T01:02:35;8.89;93.37
70166;SHT30;57541;47.408;18.822;2024-02-04T01:03:07;8.93;93.39
70166;SHT30;57541;47.408;18.822;2024-02-04T01:03:38;8.89;93.44
70166;SHT30;57541;47.408;18.822;2024-02-04T01:04:10;8.92;93.48
70166;SHT30;57541;47.408;18.822;2024-02-04T01:04:42;8.87;93.56
70166;SHT30;57541;47.408;18.822;2024-02-04T01:05:14;8.87;93.65
70166;SHT30;57541;47.408;18.822;2024-02-04T01:05:46;8.83;93.67
70166;SHT30;57541;47.408;18.822;2024-02-04T01:06:18;8.79;93.78
70166;SHT30;57541;47.408;18.822;2024-02-04T01:06:50;8.80;93.87
70166;SHT30;57541;47.408;18.822;2024-02-04T01:07:32;8.73;94.06
70166;SHT30;57541;47.408;18.822;2024-02-04T01:08:04;8.75;94.08
70166;SHT30;57541;47.408;18.822;2024-02-04T01:08:36;8.71;94.09
70166;SHT30;57541;47.408;18.822;2024-02-04T01:09:09;8.72;94.18
70166;SHT30;57541;47.408;18.822;2024-02-04T01:09:41;8.66;94.30
70166;SHT30;57541;47.408;18.822;2024-02-04T01:10:12;8.69;94.32
70166;SHT30;57541;47.408;18.822;2024-02-04T01:10:44;8.66;94.34
70166;SHT30;57541;47.408;18.822;2024-02-04T01:11:16;8.68;94.31
70166;SHT30;57541;47.408;18.822;2024-02-04T01:11:48;8.65;94.31
70166;SHT30;57541;47.408;18.822;2024-02-04T01:12:20;8.65;94.40
70166;SHT30;57541;47.408;18.822;2024-02-04T01:12:51;8.66;94.41
70166;SHT30;57541;47.408;18.822;2024-02-04T01:13:23;8.65;94.49
70166;SHT30;57541;47.408;18.822;2024-02-04T01:13:55;8.62;94.46
70166;SHT30;57541;47.408;18.822;2024-02-04T01:14:27;8.56;94.52
70166;SHT30;57541;47.408;18.822;2024-02-04T01:14:59;8.49;94.76
70166;SHT30;57541;47.408;18.822;2024-02-04T01:15:31;8.55;94.94
70166;SHT30;57541;47.408;18.822;2024-02-04T01:16:03;8.48;94.88
70166;SHT30;57541;47.408;18.822;2024-02-04T01:16:35;8.46;94.95
70166;SHT30;57541;47.408;18.822;2024-02-04T01:17:06;8.44;95.00
70166;SHT30;57541;47.408;18.822;2024-02-04T01:17:39;8.44;95.06
70166;SHT30;57541;47.408;18.822;2024-02-04T01:18:11;8.41;95.07
70166;SHT30;57541;47.408;18.822;2024-02-04T01:18:43;8.45;95.10
70166;SHT30;57541;47.408;18.822;2024-02-04T01:19:15;8.45;95.10
70166;SHT30;57541;47.408;18.822;2024-02-04T01:19:47;8.44;95.09
70166;SHT30;57541;47.408;18.822;2024-02-04T01:20:19;8.35;95.30
70166;SHT30;57541;47.408;18.822;2024-02-04T01:20:51;8.30;95.48
70166;SHT30;57541;47.408;18.822;2024-02-04T01:21:23;8.24;95.64
70166;SHT30;57541;47.408;18.822;2024-02-04T01:21:55;8.25;95.80
70166;SHT30;57541;47.408;18.822;2024-02-04T01:22:27;8.25;95.82
70166;SHT30;57541;47.408;18.822;2024-02-04T01:22:59;8.20;95.82
70166;SHT30;57541;47.408;18.822;2024-02-04T01:23:30;8.21;95.88
70166;SHT30;57541;47.408;18.822;2024-02-04T01:24:02;8.18;95.87
70166;SHT30;57541;47.408;18.822;2024-02-04T01:24:34;8.16;95.90
70166;SHT30;57541;47.408;18.822;2024-02-04T01:25:06;8.14;95.95
70166;SHT30;57541;47.408;18.822;2024-02-04T01:25:38;8.14;96.17
70166;SHT30;57541;47.408;18.822;2024-02-04T01:26:14;8.11;96.33
70166;SHT30;57541;47.408;18.822;2024-02-04T01:26:46;8.14;96.39
70166;SHT30;57541;47.408;18.822;2024-02-04T01:27:18;8.14;96.48
70166;SHT30;57541;47.408;18.822;2024-02-04T01:27:50;8.11;96.49
70166;SHT30;57541;47.408;18.822;2024-02-04T01:28:22;8.16;96.76
70166;SHT30;57541;47.408;18.822;2024-02-04T01:28:54;8.08;96.80
70166;SHT30;57541;47.408;18.822;2024-02-04T01:29:25;8.08;97.09
70166;SHT30;57541;47.408;18.822;2024-02-04T01:29:57;8.11;97.01
70166;SHT30;57541;47.408;18.822;2024-02-04T01:30:29;8.11;97.09
70166;SHT30;57541;47.408;18.822;2024-02-04T01:31:03;8.10;97.21
70166;SHT30;57541;47.408;18.822;2024-02-04T01:31:35;8.04;97.30
70166;SHT30;57541;47.408;18.822;2024-02-04T01:32:07;8.00;97.24
70166;SHT30;57541;47.408;18.822;2024-02-04T01:32:38;8.01;97.50
70166;SHT30;57541;47.408;18.822;2024-02-04T01:33:10;8.04;97.45
70166;SHT30;57541;47.408;18.822;2024-02-04T01:33:42;8.00;97.49
70166;SHT30;57541;47.408;18.822;2024-02-04T01:34:14;8.01;97.54
70166;SHT30;57541;47.408;18.822;2024-02-04T01:34:46;8.00;97.72
70166;SHT30;57541;47.408;18.822;2024-02-04T01:35:18;8.00;97.87
70166;SHT30;57541;47.408;18.822;2024-02-04T01:35:50;7.98;97.83
70166;SHT30;57541;47.408;18.822;2024-02-04T01:36:23;8.00;97.90
70166;SHT30;57541;47.408;18.822;2024-02-04T01:36:55;7.96;97.88
70166;SHT30;57541;47.408;18.822;2024-02-04T01:37:27;8.00;98.16
70166;SHT30;57541;47.408;18.822;2024-02-04T01:37:58;7.94;98.16
70166;SHT30;57541;47.408;18.822;2024-02-04T01:38:30;7.98;98.27
70166;SHT30;57541;47.408;18.822;2024-02-04T01:39:02;8.07;98.31
70166;SHT30;57541;47.408;18.822;2024-02-04T01:39:34;8.06;98.27
70166;SHT30;57541;47.408;18.822;2024-02-04T01:40:07;8.04;98.14
70166;SHT30;57541;47.408;18.822;2024-02-04T01:40:39;8.06;98.25
70166;SHT30;57541;47.408;18.822;2024-02-04T01:41:11;8.03;98.34
70166;SHT30;57541;47.408;18.822;2024-02-04T01:41:43;8.04;98.30
70166;SHT30;57541;47.408;18.822;2024-02-04T01:42:17;8.03;98.33
70166;SHT30;57541;47.408;18.822;2024-02-04T01:42:49;8.01;98.46
70166;SHT30;57541;47.408;18.822;2024-02-04T01:43:21;8.03;98.40
70166;SHT30;57541;47.408;18.822;2024-02-04T01:43:53;8.08;98.52
70166;SHT30;57541;47.408;18.822;2024-02-04T01:44:25;8.11;98.55
70166;SHT30;57541;47.408;18.822;2024-02-04T01:44:57;8.11;98.38
70166;SHT30;57541;47.408;18.822;2024-02-04T01:45:29;8.13;98.32
70166;SHT30;57541;47.408;18.822;2024-02-04T01:46:01;8.13;98.32
70166;SHT30;57541;47.408;18.822;2024-02-04T01:46:38;8.14;98.37
70166;SHT30;57541;47.408;18.822;2024-02-04T01:47:10;8.10;98.37
70166;SHT30;57541;47.408;18.822;2024-02-04T01:47:42;8.13;98.50
70166;SHT30;57541;47.408;18.822;2024-02-04T01:48:14;8.17;98.68
70166;SHT30;57541;47.408;18.822;2024-02-04T01:48:47;8.17;98.71
70166;SHT30;57541;47.408;18.822;2024-02-04T01:49:19;8.20;98.77
70166;SHT30;57541;47.408;18.822;2024-02-04T01:49:52;8.25;98.88
70166;SHT30;57541;47.408;18.822;2024-02-04T01:50:24;8.30;98.62
70166;SHT30;57541;47.408;18.822;2024-02-04T01:50:57;8.31;98.62
70166;SHT30;57541;47.408;18.822;2024-02-04T01:51:30;8.31;98.69
70166;SHT30;57541;47.408;18.822;2024-02-04T01:52:02;8.35;98.67
70166;SHT30;57541;47.408;18.822;2024-02-04T01:52:37;8.37;98.70
70166;SHT30;57541;47.408;18.822;2024-02-04T01:53:10;8.34;98.65
70166;SHT30;57541;47.408;18.822;2024-02-04T01:53:44;8.34;98.91
70166;SHT30;57541;47.408;18.822;2024-02-04T01:54:16;8.41;98.96
70166;SHT30;57541;47.408;18.822;2024-02-04T01:54:49;8.38;98.87
70166;SHT30;57541;47.408;18.822;2024-02-04T01:55:22;8.38;98.93
70166;SHT30;57541;47.408;18.822;2024-02-04T01:55:55;8.40;99.00
70166;SHT30;57541;47.408;18.822;2024-02-04T01:56:27;8.40;99.05
70166;SHT30;57541;47.408;18.822;2024-02-04T01:56:59;8.41;99.00
70166;SHT30;57541;47.408;18.822;2024-02-04T01:57:34;8.40;99.07
70166;SHT30;57541;47.408;18.822;2024-02-04T01:58:09;8.38;99.20
70166;SHT30;57541;47.408;18.822;2024-02-04T01:58:42;8.37;99.17
70166;SHT30;57541;47.408;18.822;2024-02-04T01:59:15;8.37;99.22
70166;SHT30;57541;47.408;18.822;2024-02-04T01:59:48;8.38;99.19
70166;SHT30;57541;47.408;18.822;2024-02-04T02:00:20;8.37;99.23
70166;SHT30;57541;47.408;18.822;2024-02-04T02:00:52;8.38;99.43
70166;SHT30;57541;47.408;18.822;2024-02-04T02:01:24;8.40;99.46
70166;SHT30;57541;47.408;18.822;2024-02-04T02:01:59;8.42;99.48
70166;SHT30;57541;47.408;18.822;2024-02-04T02:02:32;8.40;99.39
70166;SHT30;57541;47.408;18.822;2024-02-04T02:03:06;8.34;99.38
70166;SHT30;57541;47.408;18.822;2024-02-04T02:03:38;8.41;99.46
70166;SHT30;57541;47.408;18.822;2024-02-04T02:04:11;8.37;99.32
70166;SHT30;57541;47.408;18.822;2024-02-04T02:04:44;8.35;99.34
70166;SHT30;57541;47.408;18.822;2024-02-04T02:05:16;8.35;99.46
70166;SHT30;57541;47.408;18.822;2024-02-04T02:05:48;8.37;99.52
70166;SHT30;57541;47.408;18.822;2024-02-04T02:06:21;8.35;99.63
70166;SHT30;57541;47.408;18.822;2024-02-04T02:06:56;8.35;99.65
70166;SHT30;57541;47.408;18.822;2024-02-04T02:07:28;8.27;99.66
70166;SHT30;57541;47.408;18.822;2024-02-04T02:08:00;8.31;99.71
70166;SHT30;57541;47.408;18.822;2024-02-04T02:08:32;8.30;99.77
70166;SHT30;57541;47.408;18.822;2024-02-04T02:09:04;8.27;99.76
70166;SHT30;57541;47.408;18.822;2024-02-04T02:09:37;8.30;99.75
70166;SHT30;57541;47.408;18.822;2024-02-04T02:10:09;8.27;99.77
70166;SHT30;57541;47.408;18.822;2024-02-04T02:10:46;8.24;99.84
70166;SHT30;57541;47.408;18.822;2024-02-04T02:11:25;8.24;99.85
70166;SHT30;57541;47.408;18.822;2024-02-04T02:12:14;8.27;99.82
70166;SHT30;57541;47.408;18.822;2024-02-04T02:12:50;8.25;99.88
70166;SHT30;57541;47.408;18.822;2024-02-04T02:13:25;8.25;99.85
70166;SHT30;57541;47.408;18.822;2024-02-04T02:14:00;8.23;99.76
70166;SHT30;57541;47.408;18.822;2024-02-04T02:14:38;8.24;99.85
70166;SHT30;57541;47.408;18.822;2024-02-04T02:15:29;8.27;99.99
70166;SHT30;57541;47.408;18.822;2024-02-04T02:16:07;8.30;99.99
70166;SHT30;57541;47.408;18.822;2024-02-04T02:16:44;8.24;99.90
70166;SHT30;57541;47.408;18.822;2024-02-04T02:17:21;8.27;99.98
70166;SHT30;57541;47.408;18.822;2024-02-04T02:18:27;8.21;99.88
70166;SHT30;57541;47.408;18.822;2024-02-04T02:20:12;8.17;99.99
70166;SHT30;57541;47.408;18.822;2024-02-04T02:21:46;8.11;99.99
70166;SHT30;57541;47.408;18.822;2024-02-04T02:22:31;8.16;99.99
70166;SHT30;57541;47.408;18.822;2024-02-04T02:23:12;8.11;99.99
70166;SHT30;57541;47.408;18.822;2024-02-04T02:24:38;8.07;99.99
70166;SHT30;57541;47.408;18.822;2024-02-04T02:25:13;8.13;99.99
70166;SHT30;57541;47.408;18.822;2024-02-04T02:25:46;8.10;99.99
70166;SHT30;57541;47.408;18.822;2024-02-04T02:26:18;8.07;99.99
70166;SHT30;57541;47.408;18.822;2024-02-04T02:26:50;8.07;99.99
70166;SHT30;57541;47.408;18.822;2024-02-04T02:27:22;8.04;99.99
70166;SHT30;57541;47.408;18.822;2024-02-04T02:27:54;8.10;99.99
70166;SHT30;57541;47.408;18.822;2024-02-04T02:28:26;8.10;99.99
70166;SHT30;57541;47.408;18.822;2024-02-04T02:28:58;8.10;99.99
70166;SHT30;57541;47.408;18.822;2024-02-04T02:29:30;8.14;99.99
70166;SHT30;57541;47.408;18.822;2024-02-04T02:30:02;8.07;99.99
70166;SHT30;57541;47.408;18.822;2024-02-04T02:30:34;8.11;99.99
70166;SHT30;57541;47.408;18.822;2024-02-04T02:31:06;8.11;99.99
70166;SHT30;57541;47.408;18.822;2024-02-04T02:31:38;8.11;99.99
70166;SHT30;57541;47.408;18.822;2024-02-04T02:32:19;8.10;99.99
70166;SHT30;57541;47.408;18.822;2024-02-04T02:32:52;8.13;99.99
70166;SHT30;57541;47.408;18.822;2024-02-04T02:33:24;8.08;99.99
70166;SHT30;57541;47.408;18.822;2024-02-04T02:33:56;8.11;99.99
70166;SHT30;57541;47.408;18.822;2024-02-04T02:34:28;8.11;99.99
70166;SHT30;57541;47.408;18.822;2024-02-04T02:35:10;8.16;99.99
70166;SHT30;57541;47.408;18.822;2024-02-04T02:35:46;8.18;99.99
70166;SHT30;57541;47.408;18.822;2024-02-04T02:36:21;8.11;99.99
70166;SHT30;57541;47.408;18.822;2024-02-04T02:39:06;8.13;99.99
70166;SHT30;57541;47.408;18.822;2024-02-04T02:40:57;8.17;99.99
70166;SHT30;57541;47.408;18.822;2024-02-04T02:41:30;8.16;99.99
70166;SHT30;57541;47.408;18.822;2024-02-04T02:42:04;8.21;99.99
70166;SHT30;57541;47.408;18.822;2024-02-04T02:42:38;8.20;99.99
70166;SHT30;57541;47.408;18.822;2024-02-04T02:43:11;8.18;99.99
70166;SHT30;57541;47.408;18.822;2024-02-04T02:43:44;8.23;99.99
70166;SHT30;57541;47.408;18.822;2024-02-04T02:44:18;8.21;99.99
70166;SHT30;57541;47.408;18.822;2024-02-04T02:44:52;8.20;99.99
70166;SHT30;57541;47.408;18.822;2024-02-04T02:45:25;8.20;99.99
70166;SHT30;57541;47.408;18.822;2024-02-04T02:45:58;8.20;99.99
70166;SHT30;57541;47.408;18.822;2024-02-04T02:46:29;8.18;99.99
70166;SHT30;57541;47.408;18.822;2024-02-04T02:47:02;8.20;99.99
70166;SHT30;57541;47.408;18.822;2024-02-04T02:47:36;8.18;99.99
70166;SHT30;57541;47.408;18.822;2024-02-04T02:48:10;8.18;99.99
70166;SHT30;57541;47.408;18.822;2024-02-04T02:48:42;8.20;99.99
70166;SHT30;57541;47.408;18.822;2024-02-04T02:49:15;8.20;99.99
70166;SHT30;57541;47.408;18.822;2024-02-04T02:49:47;8.23;99.99
70166;SHT30;57541;47.408;18.822;2024-02-04T02:50:19;8.20;99.99
70166;SHT30;57541;47.408;18.822;2024-02-04T02:50:51;8.17;99.99
70166;SHT30;57541;47.408;18.822;2024-02-04T02:51:25;8.18;99.99
70166;SHT30;57541;47.408;18.822;2024-02-04T02:51:56;8.14;99.99
70166;SHT30;57541;47.408;18.822;2024-02-04T02:52:28;8.10;99.99
70166;SHT30;57541;47.408;18.822;2024-02-04T02:53:00;8.11;99.99
70166;SHT30;57541;47.408;18.822;2024-02-04T02:53:32;8.04;99.99
70166;SHT30;57541;47.408;18.822;2024-02-04T02:54:03;8.04;99.99
70166;SHT30;57541;47.408;18.822;2024-02-04T02:54:35;8.01;99.99
70166;SHT30;57541;47.408;18.822;2024-02-04T02:55:07;8.01;99.99
70166;SHT30;57541;47.408;18.822;2024-02-04T02:55:39;8.04;99.99
70166;SHT30;57541;47.408;18.822;2024-02-04T02:56:12;8.04;99.99
70166;SHT30;57541;47.408;18.822;2024-02-04T02:56:44;8.07;99.99
70166;SHT30;57541;47.408;18.822;2024-02-04T02:57:16;8.04;99.99
70166;SHT30;57541;47.408;18.822;2024-02-04T02:57:48;8.06;99.99
70166;SHT30;57541;47.408;18.822;2024-02-04T02:58:20;8.08;99.99
70166;SHT30;57541;47.408;18.822;2024-02-04T02:58:52;8.07;99.99
70166;SHT30;57541;47.408;18.822;2024-02-04T02:59:24;8.07;99.99
70166;SHT30;57541;47.408;18.822;2024-02-04T02:59:55;8.08;99.99
70166;SHT30;57541;47.408;18.822;2024-02-04T03:00:27;8.08;99.99
70166;SHT30;57541;47.408;18.822;2024-02-04T03:00:59;8.06;99.99
70166;SHT30;57541;47.408;18.822;2024-02-04T03:01:31;8.07;99.99
70166;SHT30;57541;47.408;18.822;2024-02-04T03:02:03;7.98;99.99
70166;SHT30;57541;47.408;18.822;2024-02-04T03:02:35;8.01;99.99
70166;SHT30;57541;47.408;18.822;2024-02-04T03:03:07;7.94;99.99
70166;SHT30;57541;47.408;18.822;2024-02-04T03:03:39;7.94;99.99
70166;SHT30;57541;47.408;18.822;2024-02-04T03:04:11;7.96;99.99
70166;SHT30;57541;47.408;18.822;2024-02-04T03:04:43;7.96;99.99
70166;SHT30;57541;47.408;18.822;2024-02-04T03:05:16;7.94;99.99
70166;SHT30;57541;47.408;18.822;2024-02-04T03:05:48;7.90;99.99
70166;SHT30;57541;47.408;18.822;2024-02-04T03:06:20;7.93;99.99
70166;SHT30;57541;47.408;18.822;2024-02-04T03:06:51;7.89;99.99
70166;SHT30;57541;47.408;18.822;2024-02-04T03:07:23;7.85;99.99
70166;SHT30;57541;47.408;18.822;2024-02-04T03:07:55;7.79;99.99
70166;SHT30;57541;47.408;18.822;2024-02-04T03:08:27;7.80;99.99
70166;SHT30;57541;47.408;18.822;2024-02-04T03:08:59;7.82;99.99
70166;SHT30;57541;47.408;18.822;2024-02-04T03:09:31;7.77;99.99
70166;SHT30;57541;47.408;18.822;2024-02-04T03:10:03;7.76;99.99
70166;SHT30;57541;47.408;18.822;2024-02-04T03:10:35;7.80;99.99
70166;SHT30;57541;47.408;18.822;2024-02-04T03:11:07;7.83;99.99
70166;SHT30;57541;47.408;18.822;2024-02-04T03:11:38;7.83;99.99
70166;SHT30;57541;47.408;18.822;2024-02-04T03:12:10;7.83;99.99
70166;SHT30;57541;47.408;18.822;2024-02-04T03:12:42;7.85;99.99
70166;SHT30;57541;47.408;18.822;2024-02-04T03:13:14;7.90;99.99
70166;SHT30;57541;47.408;18.822;2024-02-04T03:13:46;7.91;99.99
70166;SHT30;57541;47.408;18.822;2024-02-04T03:14:18;7.91;99.99
70166;SHT30;57541;47.408;18.822;2024-02-04T03:14:50;7.96;99.99
70166;SHT30;57541;47.408;18.822;2024-02-04T03:15:21;7.96;99.99
70166;SHT30;57541;47.408;18.822;2024-02-04T03:15:53;7.91;99.99
70166;SHT30;57541;47.408;18.822;2024-02-04T03:16:25;7.94;99.99
70166;SHT30;57541;47.408;18.822;2024-02-04T03:16:57;7.87;99.99
70166;SHT30;57541;47.408;18.822;2024-02-04T03:17:29;7.89;99.99
70166;SHT30;57541;47.408;18.822;2024-02-04T03:18:01;7.91;99.99
70166;SHT30;57541;47.408;18.822;2024-02-04T03:18:32;7.89;99.99
70166;SHT30;57541;47.408;18.822;2024-02-04T03:19:05;7.89;99.99
70166;SHT30;57541;47.408;18.822;2024-02-04T03:19:38;7.89;99.99
70166;SHT30;57541;47.408;18.822;2024-02-04T03:20:10;7.87;99.99
70166;SHT30;57541;47.408;18.822;2024-02-04T03:20:42;7.89;99.99
70166;SHT30;57541;47.408;18.822;2024-02-04T03:21:14;7.93;99.99
70166;SHT30;57541;47.408;18.822;2024-02-04T03:21:47;7.94;99.99
70166;SHT30;57541;47.408;18.822;2024-02-04T03:22:19;7.93;99.99
70166;SHT30;57541;47.408;18.822;2024-02-04T03:22:54;7.98;99.99
70166;SHT30;57541;47.408;18.822;2024-02-04T03:23:26;8.00;99.99
70166;SHT30;57541;47.408;18.822;2024-02-04T03:23:58;8.01;99.99
70166;SHT30;57541;47.408;18.822;2024-02-04T03:24:30;7.96;99.99
70166;SHT30;57541;47.408;18.822;2024-02-04T03:25:01;7.97;99.99
70166;SHT30;57541;47.408;18.822;2024-02-04T03:25:34;8.00;99.99
70166;SHT30;57541;47.408;18.822;2024-02-04T03:26:05;8.00;99.99
70166;SHT30;57541;47.408;18.822;2024-02-04T03:26:37;7.97;99.99
70166;SHT30;57541;47.408;18.822;2024-02-04T03:27:09;7.93;99.99
70166;SHT30;57541;47.408;18.822;2024-02-04T03:27:41;7.90;99.99
70166;SHT30;57541;47.408;18.822;2024-02-04T03:28:12;7.96;99.99
70166;SHT30;57541;47.408;18.822;2024-02-04T03:28:44;7.96;99.99
70166;SHT30;57541;47.408;18.822;2024-02-04T03:29:16;7.97;99.99
70166;SHT30;57541;47.408;18.822;2024-02-04T03:29:48;7.91;99.99
70166;SHT30;57541;47.408;18.822;2024-02-04T03:30:20;7.96;99.99
70166;SHT30;57541;47.408;18.822;2024-02-04T03:30:52;7.98;99.99
70166;SHT30;57541;47.408;18.822;2024-02-04T03:31:24;7.96;99.99
70166;SHT30;57541;47.408;18.822;2024-02-04T03:31:56;7.94;99.99
70166;SHT30;57541;47.408;18.822;2024-02-04T03:32:28;7.96;99.99